This is the latest recevied weather packets stored in our database for station/object NF3Q. If no packets are shown the sender has not sent any weather packets the latest 10 day(s).
| Time | Temp. | Humidity | Pressure | Rain* | Wind** | Luminosity | Snow |
|---|---|---|---|---|---|---|---|
| 1777049124 | 26.67° C | 38% | 1009 hPa | 0 mm | - | - | - |
| 1777047007 | 26.11° C | 40% | 1009.5 hPa | 0 mm | - | - | - |
| 1777046417 | 26.11° C | 43% | 1009.6 hPa | 0 mm | - | - | - |
| 1777046107 | 26.11° C | 42% | 1009.6 hPa | 0 mm | - | - | - |
| 1777045807 | 25.56° C | 45% | 1009.4 hPa | 0 mm | - | - | - |
| 1777045207 | 25.56° C | 48% | 1009.5 hPa | 0 mm | - | - | - |
| 1777044308 | 25° C | 49% | 1009.7 hPa | 0 mm | - | - | - |
| 1777043104 | 24.44° C | 52% | 1009.7 hPa | 0 mm | - | - | - |
| 1777040409 | 22.78° C | 58% | 1010 hPa | 0 mm | - | - | - |
| 1777039804 | 22.22° C | 58% | 1010.1 hPa | 0 mm | - | - | - |
| 1777037710 | 20° C | 70% | 1010.4 hPa | 0 mm | - | - | - |
| 1777036209 | 17.78° C | 79% | 1010.7 hPa | 0 mm | - | - | - |
| 1777034406 | 16.11° C | 86% | 1011 hPa | 0 mm | - | - | - |
| 1777034106 | 15.56° C | 87% | 1011 hPa | 0 mm | - | - | - |
| 1777033208 | 15° C | 89% | 1011.1 hPa | 0 mm | - | - | - |
| 1777032608 | 14.44° C | 89% | 1011.1 hPa | 0 mm | - | - | - |
| 1777032028 | 14.44° C | 90% | 1011.1 hPa | 0 mm | - | - | - |
| 1777031404 | 14.44° C | 89% | 1011 hPa | 0 mm | - | - | - |
| 1777030220 | 13.89° C | 88% | 1010.9 hPa | 0 mm | - | - | - |
| 1777029015 | 13.89° C | 88% | 1011 hPa | 0 mm | - | - | - |
| 1777028709 | 13.89° C | 89% | 1010.9 hPa | 0 mm | - | - | - |
| 1777028426 | 13.89° C | 89% | 1010.9 hPa | 0 mm | - | - | - |
| 1777027514 | 13.89° C | 89% | 1010.7 hPa | 0 mm | - | - | - |
| 1777023928 | 13.33° C | 87% | 1010.8 hPa | 0 mm | - | - | - |
| 1777020610 | 13.89° C | 86% | 1011.1 hPa | 0 mm | - | - | - |
* Rain latest hour (hover to see other rain measurements)
** Current wind speed in m/s (hover to see current wind gust speed)